MET'MAP v2.0
soon released !

Expected late october,
this new version will be
more efficient, smarter,
and hosted on a brand new
server x3 powerfull...
...and still free !


Not compatible ?
Try the mobile version !

LOG IN : | Subscribe | Disclaimer | Who is Orbifly ? |
ICAO code :
Legend : VFR Marginal VFR IFR Intensive IFR Very Intensive IFR
Visi :
Ceiling :
>= 8 km
>= 3000ft
5 to 8 km
1000 to 3000 ft
1500m to 5 km
500 to 1000 ft
800 to 1500m
200 to 500 ft
< 800m
< 200 ft

METAR - EDAC Altenburg-Nobitz - 27 May 2020 12:27 UTC
Data Sources :     NOAA   


- Airport Elevation : 640 ft
- IATA code : AOC
- No reported NOTAMs.


EDAC - Altenburg-Nobitz

Latest METAR recorded : 2015/08/10 17:50 EDAC 101750Z 06004KT 030V090 CAVOK 30/15 Q1012
TAF TAF EDAC
Valid from the 27 at 09:00 until the 27 at 18:00 UTC


270800Z 2709/2718 33004KT CAVOK

Source NOAA


MET'MAP, your aeronautical weather chart ! - Copyright ORBIFLY December 2007

Programming & Development : Alexandra Zaïnal
Co-Developer : Marc-Olivier Méhu
Technical & hardware support : Manuel Goepfert
Concept & Financing : Baudouin d'Aumeries